| Place | Name | Time | Raw score | Score |
|---|---|---|---|---|
| 1 | DasGerippe | 1:09.49 | 1,000 | 336 |
| 2 | -DarkLlama- | 1:10.92 | 900 | 302 |
| 3 | Brionac | 1:12.67 | 859 | 288 |
| 4 | [STREET BREED] Lewis Madilton | 1:17.67 | 827 | 278 |
| 5 | draycora | 1:28.00 | 800 | 269 |
| 6 | Zany | 1:28.36 | 777 | 261 |
| 7 | Lol Bengals | 1:28.56 | 756 | 254 |
| 8 | Bile | 1:28.67 | 736 | 247 |
| 9 | Draygone | 1:28.71 | 718 | 241 |
| 10 | CrazyGamer742 | 1:29.10 | 700 | 235 |
| 11 | Sidewinder Fang | 1:29.17 | 684 | 230 |
| 12 | lefor0416 | 1:29.34 | 669 | 225 |
| 13 | Winter's Crescendo | 1:29.64 | 654 | 220 |
| 14 | jeff bezos twink attorney | 1:29.70 | 640 | 215 |
| 15 | bacon | 1:29.98 | 626 | 210 |
| 16 | codythecoder | 1:30.18 | 613 | 206 |
| 17 | Azure Zakura | 1:30.24 | 600 | 201 |
| 18 | exterminator2100 | 1:31.21 | 588 | 197 |
| 19 | Mei Rummy-chan | 1:31.45 | 576 | 193 |
| 20 | Bridge | 1:31.77 | 565 | 190 |
| 21 | Thermos | 1:31.82 | 553 | 186 |
| 22 | Ennik | 1:31.91 | 542 | 182 |
| 23 | Waonder | 1:31.93 | 531 | 178 |
| 24 | Nerf | 1:31.95 | 521 | 175 |
| 25 | slug ʕ●.●ʔ | 1:31.97 | 511 | 172 |
| 25 | KnightBane | 1:31.97 | 511 | 172 |
| 27 | fentanyl lover <3 | 1:32.01 | 491 | 165 |
| 28 | HungryNarwhal | 1:32.08 | 481 | 162 |
| 29 | Tribow | 1:32.16 | 471 | 158 |
| 30 | Tiedye | 1:32.21 | 462 | 155 |
| 31 | Waltuh White | 1:32.22 | 453 | 152 |
| 32 | Puma D. Ace | 1:32.23 | 444 | 149 |
| 32 | Go Fish | 1:32.23 | 444 | 149 |
| 34 | MyurrDurr | 1:32.24 | 426 | 143 |
| 35 | TP-N.co PC-118 B-10001110101 | 1:32.25 | 417 | 140 |
| 36 | Zephyrous | 1:32.27 | 409 | 137 |
| 36 | IllKIllU | 1:32.27 | 409 | 137 |
| 38 | Kinix | 1:32.31 | 392 | 132 |
| 39 | Nexhin | 1:32.36 | 384 | 129 |
| 40 | D2C | Chrisc02 | 1:32.37 | 376 | 126 |
| 41 | PathToV1ctory | 1:32.38 | 368 | 124 |
| 41 | JnvSor | 1:32.38 | 368 | 124 |
| 43 | Yak-Yo! | 1:32.40 | 352 | 118 |
| 43 | Nyra | 1:32.40 | 352 | 118 |
| 43 | Jay2a | 1:32.40 | 352 | 118 |
| 46 | PlatinumAstra | 1:32.41 | 330 | 111 |
| 47 | levinv270 | 1:32.42 | 322 | 108 |
| 48 | Ebeta2 | 1:32.47 | 315 | 106 |
| 49 | Kibōchen | 1:32.50 | 308 | 103 |
| 50 | Eagl3 | 1:32.52 | 300 | 101 |
| 50 | Brother Buckshot | 1:32.52 | 300 | 101 |
| 52 | Pristine | 1:32.53 | 286 | 96 |
| 53 | TinFoilMkIV | 1:32.55 | 279 | 94 |
| 54 | Hijacker02 | 1:32.57 | 272 | 91 |
| 55 | Wahoo | 1:32.62 | 266 | 89 |
| 56 | krizithy | 1:32.64 | 259 | 87 |
| 57 | BugJams | 1:32.65 | 252 | 85 |
| 58 | McFolt | 1:32.67 | 246 | 83 |
| 59 | mammles | 1:32.68 | 239 | 80 |
| 59 | Kierahn_ | 1:32.68 | 239 | 80 |
| 61 | XiQu3sT | 1:32.69 | 226 | 76 |
| 62 | Mud | 1:32.74 | 219 | 74 |
| 62 | NOVA | 1:32.74 | 219 | 74 |
| 64 | FriendlySwords | 1:32.75 | 207 | 70 |
| 65 | kriz_chan | 1:32.76 | 200 | 67 |
| 66 | kashyyyke | 1:32.77 | 194 | 65 |
| 66 | [deleted] | 1:32.77 | 194 | 65 |
| 66 | Terr4 | 1:32.77 | 194 | 65 |
| 69 | Rayne Hellfire | 1:32.78 | 176 | 59 |
| 69 | Tkach | 1:32.78 | 176 | 59 |
| 71 | Idle Asides | 1:32.79 | 164 | 55 |
| 72 | Haunted Pleb | 1:32.81 | 158 | 53 |
| 73 | VEGA | 1:32.82 | 152 | 51 |
| 73 | Maus | 1:32.82 | 152 | 51 |
| 73 | blacktiger91 | 1:32.82 | 152 | 51 |
| 76 | Latapi | 1:32.84 | 134 | 45 |
| 77 | RetaliationGuy YT | 1:32.86 | 129 | 43 |
| 77 | Cancer Liquid | 1:32.86 | 129 | 43 |
| 79 | Super_Shadow57 | 1:32.87 | 117 | 39 |
| 79 | Charlotte | 1:32.87 | 117 | 39 |
| 79 | Prof. Pinwheel | 1:32.87 | 117 | 39 |
| 79 | Ryowulf768 | 1:32.87 | 117 | 39 |
| 83 | PinesOfChaos | 1:32.88 | 95 | 32 |
| 83 | rocketdriverexp | 1:32.88 | 95 | 32 |
| 85 | i0nTempest | 1:32.90 | 84 | 28 |
| 86 | khrisround2 | 1:32.91 | 79 | 27 |
| 87 | Woody | 1:32.92 | 73 | 25 |
| 88 | sugoiangela | 1:32.93 | 68 | 23 |
| 89 | Nitrium | 1:32.94 | 62 | 21 |
| 90 | MVM | 1:32.95 | 57 | 19 |
| 90 | youtube vembress | 1:32.95 | 57 | 19 |
| 92 | codename_rb | 1:32.96 | 47 | 16 |
| 93 | Catgirl Chilis | 1:32.97 | 41 | 14 |
| 93 | Calico | 1:32.97 | 41 | 14 |
| 95 | Xiooo | 1:32.99 | 31 | 10 |
| 96 | Cathy | 1:33.00 | 26 | 9 |
| 97 | Samn | 1:33.01 | 21 | 7 |
| 98 | Spaceburger | 1:33.02 | 16 | 5 |
| 98 | Tanzanite_NR | 1:33.02 | 16 | 5 |
| 100 | Overlord | 1:33.03 | 6 | 2 |
| 101 | kivito | 1:33.04 | 0 | 0 |
| 102 | RenZõÓ | 1:33.08 | 0 | 0 |
| 102 | GaiaGaiyus | 1:33.08 | 0 | 0 |
| 102 | matheus paiva | 1:33.08 | 0 | 0 |
| 105 | Buck | 1:33.10 | 0 | 0 |
| 105 | Embylles | 1:33.10 | 0 | 0 |
| 105 | concil | 1:33.10 | 0 | 0 |
| 105 | Laudy | 1:33.10 | 0 | 0 |
| 109 | pandu | 1:33.12 | 0 | 0 |
| 109 | CrowFeather | 1:33.12 | 0 | 0 |
| 109 | cheesymantisfondue | 1:33.12 | 0 | 0 |
| 112 | . | 1:33.13 | 0 | 0 |
| 113 | ErisMRX | 1:33.16 | 0 | 0 |
| 114 | Big Bootiecoot | 1:33.17 | 0 | 0 |
| 115 | Shuya | 1:33.18 | 0 | 0 |
| 116 | Jak | 1:33.20 | 0 | 0 |
| 116 | felipe.f.a | 1:33.20 | 0 | 0 |
| 118 | JDthe3rd | 1:33.21 | 0 | 0 |
| 118 | General Kenobi | 1:33.21 | 0 | 0 |
| 120 | Curious Fish | 1:33.23 | 0 | 0 |
| 120 | Jacsn | 1:33.23 | 0 | 0 |
| 120 | MasterJedi2014 | 1:33.23 | 0 | 0 |
| 123 | Beastmaster 64 | 1:33.25 | 0 | 0 |
| 124 | Raxus | 1:33.26 | 0 | 0 |
| 125 | onyxglow | 1:33.27 | 0 | 0 |
| 125 | But we're both girls! | 1:33.27 | 0 | 0 |
| 127 | Meda | 1:33.28 | 0 | 0 |
| 127 | Desert Shark | 1:33.28 | 0 | 0 |
| 129 | rbrules | 1:33.29 | 0 | 0 |
| 130 | Luminous | 1:33.34 | 0 | 0 |
| 131 | the Bear of the Web | 1:33.35 | 0 | 0 |
| 132 | PenguinMafia | 1:33.38 | 0 | 0 |
| 132 | jason | 1:33.38 | 0 | 0 |
| 134 | florianschultz2000 | 1:33.39 | 0 | 0 |
| 135 | Glas | 1:33.40 | 0 | 0 |
| 136 | skuzzzy | 1:33.41 | 0 | 0 |
| 137 | Myliaa | 1:33.46 | 0 | 0 |
| 137 | CHAINSAW MONKEY! | 1:33.46 | 0 | 0 |
| 139 | Dreigo | 1:33.47 | 0 | 0 |
| 140 | DaBlazeMann | 1:33.51 | 0 | 0 |
| 141 | Cptnbean | 1:33.52 | 0 | 0 |
| 142 | Hotride | 1:33.54 | 0 | 0 |
| 143 | Benny Hill | 1:33.55 | 0 | 0 |
| 143 | Pinapl | 1:33.55 | 0 | 0 |
| 145 | VinLAURiA | 1:33.56 | 0 | 0 |
| 146 | G9 | 1:33.59 | 0 | 0 |
| 146 | g.brincks | 1:33.59 | 0 | 0 |
| 148 | A.K.S. | 1:33.60 | 0 | 0 |
| 149 | Tobastin | 1:33.66 | 0 | 0 |
| 150 | Ohnoitsmangofett | 1:33.69 | 0 | 0 |
| 151 | Burning_Sorrows | 1:33.73 | 0 | 0 |
| 152 | Bat Country | 1:33.80 | 0 | 0 |
| 153 | Muzzled | 1:33.84 | 0 | 0 |
| 154 | rinzu | 1:33.93 | 0 | 0 |
| 155 | Ironman_2099 | 1:34.00 | 0 | 0 |
| 156 | Hunter | 1:34.03 | 0 | 0 |
| 156 | psychoblizzard | 1:34.03 | 0 | 0 |
| 158 | replikaeyes | 1:34.05 | 0 | 0 |
| 159 | Azure | 1:34.07 | 0 | 0 |
| 160 | [MM] Vannevariable | 1:34.08 | 0 | 0 |
| 161 | Muggestutz | 1:34.13 | 0 | 0 |
| 162 | TheMelonGod | 1:34.14 | 0 | 0 |
| 162 | SpicySpaceSnake | 1:34.14 | 0 | 0 |
| 164 | cerberus❤ | 1:34.17 | 0 | 0 |
| 165 | fischpferd | 1:34.18 | 0 | 0 |
| 166 | RaiderZulu | 1:34.19 | 0 | 0 |
| 167 | doja car | 1:34.26 | 0 | 0 |
| 168 | Misplaymaker | 1:34.35 | 0 | 0 |
| 169 | ZedAxiom | 1:34.40 | 0 | 0 |
| 170 | MLGSOLAIRENOSCOPE360PRAISEIT420 | 1:34.42 | 0 | 0 |
| 171 | Dust | 1:34.44 | 0 | 0 |
| 172 | Seinah | 1:34.58 | 0 | 0 |
| 172 | TheWanderer05 | 1:34.58 | 0 | 0 |
| 174 | O' The Iron E | 1:34.61 | 0 | 0 |
| 175 | Qyter | 1:34.72 | 0 | 0 |
| 176 | Seere | 1:34.83 | 0 | 0 |
| 177 | Viridian | 1:34.89 | 0 | 0 |
| 178 | supersmily5 | 1:34.97 | 0 | 0 |
| 179 | Ferreus | 1:34.98 | 0 | 0 |
| 180 | Abnormal Cybran | 1:35.05 | 0 | 0 |
| 181 | Crado | 1:35.10 | 0 | 0 |
| 182 | Silver~ | 1:35.22 | 0 | 0 |
| 183 | TaoSen | 1:35.29 | 0 | 0 |
| 184 | Jimmy Gibbs | 1:35.41 | 0 | 0 |
| 185 | Kashuzu | 1:35.54 | 0 | 0 |
| 186 | DefenderOfHyrule | 1:35.62 | 0 | 0 |
| 187 | Pseudocue | 1:35.79 | 0 | 0 |
| 188 | ELECTRICXS | 1:35.81 | 0 | 0 |
| 189 | Irri | 1:35.83 | 0 | 0 |
| 190 | Sayukki | 1:35.84 | 0 | 0 |
| 191 | Dislin | 1:35.85 | 0 | 0 |
| 192 | GhostlyCryptid | 1:35.86 | 0 | 0 |
| 193 | Roggee | 1:35.87 | 0 | 0 |
| 194 | Californ1a | 1:35.93 | 0 | 0 |
| 195 | Domino | 1:36.04 | 0 | 0 |
| 196 | notguts | 1:36.17 | 0 | 0 |
| 197 | dannyburke03 | 1:36.18 | 0 | 0 |
| 198 | Wedel25 | 1:36.23 | 0 | 0 |
| 199 | Agent-Cryspy | 1:36.24 | 0 | 0 |
| 200 | Misaki 💜 | 1:36.26 | 0 | 0 |
| 201 | Unit M4-S0N | 1:36.32 | 0 | 0 |
| 202 | Shallot | 1:36.34 | 0 | 0 |
| 203 | SX64 | 1:36.38 | 0 | 0 |
| 204 | ルイーズ | 1:36.47 | 0 | 0 |
| 205 | Predatory_Balloon | 1:36.51 | 0 | 0 |
| 206 | Ravicale | 1:36.52 | 0 | 0 |
| 207 | DecentM | 1:36.60 | 0 | 0 |
| 208 | Krispy | 1:36.61 | 0 | 0 |
| 209 | A very silly man indeed | 1:36.66 | 0 | 0 |
| 210 | Roboraser | 1:36.71 | 0 | 0 |
| 211 | Aiko | 1:36.85 | 0 | 0 |
| 212 | Player145 | 1:37.16 | 0 | 0 |
| 213 | Dracheron | 1:37.20 | 0 | 0 |
| 214 | Tilin | 1:37.27 | 0 | 0 |
| 215 | D2C | CloudNinja | 1:37.29 | 0 | 0 |
| 216 | Paparazzi | 1:37.31 | 0 | 0 |
| 216 | boujore | 1:37.31 | 0 | 0 |
| 218 | Kenaz | 1:37.41 | 0 | 0 |
| 219 | spires | 1:37.45 | 0 | 0 |
| 220 | Backgrounds' | 1:37.48 | 0 | 0 |
| 221 | KoTbKa | 1:37.50 | 0 | 0 |
| 222 | < blank > | 1:37.55 | 0 | 0 |
| 223 | Sooth | 1:37.68 | 0 | 0 |
| 224 | Sébastien Lecornu II | 1:37.87 | 0 | 0 |
| 225 | LP_NinLory | 1:37.93 | 0 | 0 |
| 226 | JayBoneJay | 1:38.04 | 0 | 0 |
| 227 | Ninja Squirel | 1:38.16 | 0 | 0 |
| 228 | Funderfullness | 1:38.44 | 0 | 0 |
| 229 | Crespojazzman | 1:38.48 | 0 | 0 |
| 230 | WiseWolf27 | 1:38.54 | 0 | 0 |
| 231 | Jezo | 1:38.75 | 0 | 0 |
| 232 | Inzarin | 1:38.92 | 0 | 0 |
| 233 | Rip | 1:39.11 | 0 | 0 |
| 234 | Sev | 1:39.18 | 0 | 0 |
| 235 | Gmor-4 | 1:39.74 | 0 | 0 |
| 236 | Eternal_Dreamer_23 | 1:39.79 | 0 | 0 |
| 237 | MrXano | 1:39.87 | 0 | 0 |
| 238 | Lex Solhaime | 1:40.00 | 0 | 0 |
| 239 | [Lard] Kriltch | 1:40.06 | 0 | 0 |
| 240 | BryhanFine | 1:40.31 | 0 | 0 |
| 241 | EC0re | 1:40.48 | 0 | 0 |
| 242 | Waterproof | 1:40.66 | 0 | 0 |
| 243 | emirhansaral118 | 1:40.72 | 0 | 0 |
| 244 | Phimeek | 1:40.90 | 0 | 0 |
| 245 | Sylveen | 1:40.92 | 0 | 0 |
| 245 | PlΣXi | 1:40.92 | 0 | 0 |
| 247 | ErzoopaRTR | 1:40.93 | 0 | 0 |
| 248 | Zuper Greek | 1:40.95 | 0 | 0 |
| 249 | LeZalain | 1:40.96 | 0 | 0 |
| 250 | Edragon | 1:40.99 | 0 | 0 |
| 251 | -≺Zinc≻- | 1:41.49 | 0 | 0 |
| 252 | Depth | 1:41.56 | 0 | 0 |
| 253 | Jeats | 1:41.94 | 0 | 0 |
| 254 | Abaddon | 1:42.02 | 0 | 0 |
| 255 | Aotia | Qubic | 1:42.07 | 0 | 0 |
| 256 | I SMASH ROCKS | 1:42.08 | 0 | 0 |
| 257 | pigpenguin | 1:42.13 | 0 | 0 |
| 258 | Valalala | 1:42.14 | 0 | 0 |
| 258 | le0n | 1:42.14 | 0 | 0 |
| 260 | Andy95 | 1:42.17 | 0 | 0 |
| 261 | NePurple | 1:42.32 | 0 | 0 |
| 262 | twomanynumbers | 1:42.35 | 0 | 0 |
| 263 | Sone Angel | 1:42.46 | 0 | 0 |
| 264 | Crimson Blood | 1:42.75 | 0 | 0 |
| 265 | SparkyCrusader | 1:42.98 | 0 | 0 |
| 266 | Nephuxs | 1:43.02 | 0 | 0 |
| 267 | Aureliayk | 1:43.06 | 0 | 0 |
| 268 | BigThirsty | 1:43.27 | 0 | 0 |
| 269 | Bohemius | 1:43.32 | 0 | 0 |
| 270 | Verity | 1:43.34 | 0 | 0 |
| 271 | Monument576 | 1:43.41 | 0 | 0 |
| 272 | MR-Duck | 1:43.68 | 0 | 0 |
| 273 | ForlornStag | 1:43.77 | 0 | 0 |
| 274 | InsaneHawk | 1:43.85 | 0 | 0 |
| 274 | Cmacle | 1:43.85 | 0 | 0 |
| 276 | ^1WᴀʀᴘWɪʀᴇ | 1:44.01 | 0 | 0 |
| 277 | CuddleStrike | 1:44.09 | 0 | 0 |
| 278 | johnchen40904 | 1:44.12 | 0 | 0 |
| 279 | Adrimg_rider | 1:44.27 | 0 | 0 |
| 280 | Cody | 1:44.31 | 0 | 0 |
| 281 | Rombommind | 1:44.40 | 0 | 0 |
| 282 | Duffwuff | 1:44.46 | 0 | 0 |
| 283 | Moonpie | 1:44.49 | 0 | 0 |
| 284 | Dorphan | 1:44.58 | 0 | 0 |
| 285 | Heyzone | 1:44.60 | 0 | 0 |
| 286 | Dixie | 1:44.69 | 0 | 0 |
| 287 | effie 🌺 | 1:44.78 | 0 | 0 |
| 288 | Fary_Fenny | 1:44.84 | 0 | 0 |
| 289 | Nevorist | 1:44.85 | 0 | 0 |
| 290 | Slotherium | 1:44.86 | 0 | 0 |
| 291 | Hirtol | 1:44.93 | 0 | 0 |
| 292 | Fubini | 1:45.02 | 0 | 0 |
| 293 | Vega | 1:45.03 | 0 | 0 |
| 294 | sizifov | 1:45.19 | 0 | 0 |
| 295 | Chaos Titan | 1:45.23 | 0 | 0 |
| 296 | Bismuth | 1:45.24 | 0 | 0 |
| 297 | Phazyo Knight | 1:45.27 | 0 | 0 |
| 298 | 1 Ball | 1:45.34 | 0 | 0 |
| 299 | Scarlet | 1:45.62 | 0 | 0 |
| 300 | Spearmint | 1:45.68 | 0 | 0 |
| 301 | E0N | 1:45.90 | 0 | 0 |
| 302 | Superdog71 | 1:45.98 | 0 | 0 |
| 303 | Western Ice Noodle | 1:46.13 | 0 | 0 |
| 304 | Xandrak | 1:46.16 | 0 | 0 |
| 305 | CrazyMaurice120 | 1:46.23 | 0 | 0 |
| 306 | mlk | 1:46.45 | 0 | 0 |
| 307 | EonShark | 1:46.49 | 0 | 0 |
| 308 | TheEdIsNotAmused | 1:46.67 | 0 | 0 |
| 309 | Panfex | 1:46.76 | 0 | 0 |
| 310 | Goo4u | 1:46.79 | 0 | 0 |
| 311 | Raiden925 | 1:46.82 | 0 | 0 |
| 312 | Skuzzles | 1:46.96 | 0 | 0 |
| 313 | WR ParTwo | 1:47.04 | 0 | 0 |
| 314 | Pardalote | 1:47.27 | 0 | 0 |
| 315 | Burst_15 | 1:47.33 | 0 | 0 |
| 316 | Simon Evo | 1:47.37 | 0 | 0 |
| 317 | Polygonalfish | 1:47.41 | 0 | 0 |
| 318 | Serothel | 1:47.54 | 0 | 0 |
| 319 | CrimsonFox98 | 1:47.62 | 0 | 0 |
| 319 | OMANEYE | 1:47.62 | 0 | 0 |
| 321 | Machine Entity | 1:47.65 | 0 | 0 |
| 322 | Warriot | 1:47.70 | 0 | 0 |
| 323 | TartanKitty773 | 1:47.74 | 0 | 0 |
| 324 | PuppySky | 1:47.75 | 0 | 0 |
| 325 | Fushiggy | 1:47.77 | 0 | 0 |
| 326 | Megamiguel3 | 1:47.85 | 0 | 0 |
| 327 | Taro | 1:47.98 | 0 | 0 |
| 328 | Teh№ [AMP] | 1:48.06 | 0 | 0 |
| 329 | NK Nukes | 1:48.66 | 0 | 0 |
| 330 | Macinteuch Plus | 1:48.73 | 0 | 0 |
| 331 | Hirochi | 1:48.80 | 0 | 0 |
| 332 | squirreljiz | 1:48.90 | 0 | 0 |
| 333 | THE FINAL LOSER | 1:49.06 | 0 | 0 |
| 333 | Squidy_Blu | 1:49.06 | 0 | 0 |
| 335 | OmniBaneSolid | 1:49.36 | 0 | 0 |
| 336 | Greenfire DX | 1:49.86 | 0 | 0 |
| 337 | TheEvilMidnightBomber | 1:49.92 | 0 | 0 |
| 338 | Mr. Bird | 1:50.12 | 0 | 0 |
| 339 | Rosco | 1:50.17 | 0 | 0 |
| 340 | Ungarr | 1:50.24 | 0 | 0 |
| 341 | markschuurman1990 | 1:50.55 | 0 | 0 |
| 341 | LeFluffySquirrel | 1:50.55 | 0 | 0 |
| 343 | Kaderen | 1:50.60 | 0 | 0 |
| 344 | AnalBreacher | 1:50.63 | 0 | 0 |
| 345 | JeffTheBruh | 1:50.66 | 0 | 0 |
| 346 | Wourder | 1:50.69 | 0 | 0 |
| 347 | DriveOffTheCliff | 1:51.02 | 0 | 0 |
| 348 | HannaTheFox | 1:51.24 | 0 | 0 |
| 349 | Poli_Moth | 1:51.25 | 0 | 0 |
| 350 | Ae1oURed | 1:51.30 | 0 | 0 |
| 351 | kildert5 | 1:51.32 | 0 | 0 |
| 352 | TS_Mind_Swept | 1:51.44 | 0 | 0 |
| 353 | Psychlone | 1:51.77 | 0 | 0 |
| 354 | Lofthouse | 1:51.91 | 0 | 0 |
| 355 | Martins Leggeul | 1:52.23 | 0 | 0 |
| 356 | VectorBot | 1:52.38 | 0 | 0 |
| 357 | Mr.Derp | 1:52.42 | 0 | 0 |
| 358 | FyreWall | 1:52.49 | 0 | 0 |
| 359 | M4DD0X | 1:52.82 | 0 | 0 |
| 360 | bogassado | 1:52.98 | 0 | 0 |
| 361 | Ribbitt | 1:53.14 | 0 | 0 |
| 362 | [deleted] | 1:53.18 | 0 | 0 |
| 363 | Lémohn | 1:53.25 | 0 | 0 |
| 364 | Astrodynamics | 1:53.79 | 0 | 0 |
| 365 | Jaxon_Knight | 1:53.85 | 0 | 0 |
| 366 | Nick Elements | 1:53.89 | 0 | 0 |
| 367 | Ahhrealpeople | 1:53.91 | 0 | 0 |
| 368 | TheDukeOfTaco | 1:54.00 | 0 | 0 |
| 369 | Rastin™ | 1:54.43 | 0 | 0 |
| 370 | ElHombre86 | 1:54.63 | 0 | 0 |
| 370 | Kosvid | 1:54.63 | 0 | 0 |
| 372 | #NoSkillSwagger | 1:54.71 | 0 | 0 |
| 373 | KWP | 1:54.78 | 0 | 0 |
| 374 | snakeeye98 | 1:54.83 | 0 | 0 |
| 375 | dan7999 | 1:54.90 | 0 | 0 |
| 375 | lord commander | 1:54.90 | 0 | 0 |
| 377 | Mr. Beefy | 1:55.06 | 0 | 0 |
| 377 | Governor Tekagi | 1:55.06 | 0 | 0 |
| 379 | neoKMS | 1:55.23 | 0 | 0 |
| 380 | Ugly Bastard | 1:55.33 | 0 | 0 |
| 381 | Basement Security | 1:55.40 | 0 | 0 |
| 382 | Orion | 1:55.46 | 0 | 0 |
| 383 | Dig | 1:55.57 | 0 | 0 |
| 384 | Bratalix | 1:55.76 | 0 | 0 |
| 385 | SneakySN | 1:55.79 | 0 | 0 |
| 386 | MrJacksJamboree | 1:55.85 | 0 | 0 |
| 386 | ash | 1:55.85 | 0 | 0 |
| 386 | snugglebottom | 1:55.85 | 0 | 0 |
| 389 | TheEPROM9 LaTeX | 1:55.91 | 0 | 0 |
| 389 | Azy | 1:55.91 | 0 | 0 |
| 391 | FiaLilium | 1:55.94 | 0 | 0 |
| 392 | Cheapo | 1:56.00 | 0 | 0 |
| 393 | ViryGo19 | 1:56.13 | 0 | 0 |
| 394 | pixelshooter | 1:56.18 | 0 | 0 |
| 395 | Adm | 1:56.25 | 0 | 0 |
| 396 | Toppincattin | 1:56.40 | 0 | 0 |
| 397 | Blexyde | 1:56.61 | 0 | 0 |
| 398 | TheFluffyDragon/JBSTheGamer | 1:56.66 | 0 | 0 |
| 399 | Kramatus | 1:56.69 | 0 | 0 |
| 400 | Enzyme Machine | 1:56.90 | 0 | 0 |
| 401 | Easease | 1:56.96 | 0 | 0 |
| 402 | SilverRexy❤ | 1:57.03 | 0 | 0 |
| 403 | Diabetis4life | 1:57.11 | 0 | 0 |
| 404 | Sky Captain | 1:57.14 | 0 | 0 |
| 405 | Loopsty | 1:57.15 | 0 | 0 |
| 406 | Dr. Weaver | 1:57.25 | 0 | 0 |
| 407 | Neon_Shift | 1:57.26 | 0 | 0 |
| 408 | Draco Solis | 1:57.31 | 0 | 0 |
| 409 | crimes.against.art | 1:57.35 | 0 | 0 |
| 410 | OrionStarri | 1:57.38 | 0 | 0 |
| 411 | RUDrew | 1:57.39 | 0 | 0 |
| 412 | Sensokaku | 1:57.45 | 0 | 0 |
| 413 | Epsilon_Knight | 1:57.53 | 0 | 0 |
| 414 | Nekrogen57 | 1:57.85 | 0 | 0 |
| 415 | UncleJibJab | 1:58.03 | 0 | 0 |
| 416 | Meat Cyclist | 1:58.17 | 0 | 0 |
| 417 | BuzZoiD | 1:58.31 | 0 | 0 |
| 418 | RL | 1:58.40 | 0 | 0 |
| 419 | LissomChunk | 1:58.69 | 0 | 0 |
| 420 | WiteNite | 1:58.72 | 0 | 0 |
| 421 | Horcrux | 1:58.75 | 0 | 0 |
| 422 | lunaxiu | 1:58.83 | 0 | 0 |
| 423 | Isosceles | 1:59.06 | 0 | 0 |
| 424 | RainmakeR | 1:59.24 | 0 | 0 |
| 425 | ahtnos | 1:59.40 | 0 | 0 |
| 426 | Wimlex | 1:59.56 | 0 | 0 |
| 427 | Kilika | 1:59.57 | 0 | 0 |
| 428 | DemoKnight Or Busty | 1:59.59 | 0 | 0 |
| 429 | Emerald_Pick | 1:59.62 | 0 | 0 |
| 430 | REHERC | 1:59.89 | 0 | 0 |
| 431 | LittleKittyArtemis | 2:00.18 | 0 | 0 |
| 432 | Mush_r00mboy | 2:00.34 | 0 | 0 |
| 433 | Krazy8s | 2:00.38 | 0 | 0 |
| 434 | MP X10L | 2:00.45 | 0 | 0 |
| 435 | Plushsealy | 2:01.01 | 0 | 0 |
| 436 | Myogi Night | 2:01.02 | 0 | 0 |
| 436 | 🌺 CallMeAshley 🌺 | 2:01.02 | 0 | 0 |
| 438 | EndlessRayn | 2:01.12 | 0 | 0 |
| 439 | キタ一一(゚∀゚)一一!! | 2:01.46 | 0 | 0 |
| 440 | Mossy Shush | 2:01.50 | 0 | 0 |
| 441 | speed | 2:01.53 | 0 | 0 |
| 442 | gusforester | 2:01.68 | 0 | 0 |
| 443 | h | 2:02.06 | 0 | 0 |
| 444 | Oldman | 2:02.29 | 0 | 0 |
| 445 | Looks To The Moon | 2:02.56 | 0 | 0 |
| 446 | FieryIce | 2:02.63 | 0 | 0 |
| 447 | Bullet074 | 2:02.64 | 0 | 0 |
| 448 | Desodorante | 2:02.67 | 0 | 0 |
| 449 | Lemonzfoyew | 2:02.75 | 0 | 0 |
| 450 | DvN | 2:03.08 | 0 | 0 |
| 451 | Yes, I *do main this character | 2:03.11 | 0 | 0 |
| 452 | Mike4584 | 2:03.20 | 0 | 0 |
| 453 | Wrench | 2:03.31 | 0 | 0 |
| 454 | Arctic, inventor of sliced bread | 2:03.59 | 0 | 0 |
| 455 | 帕帕捏~ | 2:03.73 | 0 | 0 |
| 456 | Coopstar2323 | 2:03.81 | 0 | 0 |
| 457 | Grungus | 2:03.97 | 0 | 0 |
| 458 | HoldenC | 2:03.99 | 0 | 0 |
| 459 | Tig_Togs | 2:04.00 | 0 | 0 |
| 460 | Chaks | 2:04.08 | 0 | 0 |
| 461 | Burdo | 2:04.21 | 0 | 0 |
| 462 | [REDACTED] | 2:04.31 | 0 | 0 |
| 463 | cheesybytes | 2:04.68 | 0 | 0 |
| 464 | Vyneci | 2:04.74 | 0 | 0 |
| 465 | SneakyBombsuit | 2:04.85 | 0 | 0 |
| 466 | Filaret | 2:05.00 | 0 | 0 |
| 467 | LucaTvGaming | 2:05.01 | 0 | 0 |
| 468 | Darman | 2:05.14 | 0 | 0 |
| 468 | Velocity guy | 2:05.14 | 0 | 0 |
| 470 | CturiX | 2:05.19 | 0 | 0 |
| 471 | Daiyard | 2:05.56 | 0 | 0 |
| 472 | JacquetheRipper | 2:05.76 | 0 | 0 |
| 473 | Thing 1 | 2:06.11 | 0 | 0 |
| 474 | Uncle Pep Pep | 2:06.49 | 0 | 0 |
| 475 | Mage Vivian the Matriarch | 2:06.81 | 0 | 0 |
| 476 | Voltaic | 2:06.86 | 0 | 0 |
| 477 | delicious Croutons | 2:06.92 | 0 | 0 |
| 478 | Flamingueax | 2:07.09 | 0 | 0 |
| 479 | Skimmy Fudge | 2:07.12 | 0 | 0 |
| 480 | Blahaj Blast | 2:07.14 | 0 | 0 |
| 481 | Michael in the Middle | 2:07.16 | 0 | 0 |
| 482 | Naikel [FR] | 2:07.46 | 0 | 0 |
| 483 | Eleven27 | 2:08.11 | 0 | 0 |
| 484 | Macblur2 | 2:08.14 | 0 | 0 |
| 484 | Dyltra | 2:08.14 | 0 | 0 |
| 486 | Tesselode | 2:08.35 | 0 | 0 |
| 487 | Gandalf the Moist | 2:08.64 | 0 | 0 |
| 488 | Mändy der Zerstörer | 2:08.72 | 0 | 0 |
| 489 | [RC] | 2:08.92 | 0 | 0 |
| 490 | GetEmOtterHere | 2:08.96 | 0 | 0 |
| 491 | ThanksForNothing | 2:09.10 | 0 | 0 |
| 492 | Spotfire | 2:09.11 | 0 | 0 |
| 493 | Feed The Fishes | 2:09.34 | 0 | 0 |
| 494 | Gomorrha | 2:09.41 | 0 | 0 |
| 495 | Shade | 2:09.46 | 0 | 0 |
| 496 | StuPedasso | 2:09.47 | 0 | 0 |
| 497 | NaterrTheBull | 2:09.51 | 0 | 0 |
| 497 | Old Bastard | 2:09.51 | 0 | 0 |
| 499 | Cyxxus | 2:09.69 | 0 | 0 |
| 500 | Donkey | 2:09.87 | 0 | 0 |
| 501 | HikariKnight | 2:09.94 | 0 | 0 |
| 502 | ENDER [BOT] | 2:09.96 | 0 | 0 |
| 503 | Schranzinator | 2:10.46 | 0 | 0 |
| 504 | Tornado6500 | 2:10.77 | 0 | 0 |
| 505 | The Good Gaming Dragon | 2:10.90 | 0 | 0 |
| 506 | Apocalyptic Bunny | 2:11.20 | 0 | 0 |
| 507 | Thekingpsyduck | 2:11.75 | 0 | 0 |
| 508 | 2:12.38 | 0 | 0 | |
| 509 | Dr. Diabetes | 2:12.39 | 0 | 0 |
| 510 | PineFreshGuy | 2:12.69 | 0 | 0 |
| 511 | BlazeHedgehog | 2:12.83 | 0 | 0 |
| 512 | flo | 2:13.08 | 0 | 0 |
| 513 | pox | 2:13.21 | 0 | 0 |
| 514 | cool guy | 2:13.48 | 0 | 0 |
| 515 | tapmasterj14 | 2:13.77 | 0 | 0 |
| 516 | FifteenBread | 2:13.99 | 0 | 0 |
| 517 | Nyx | 2:14.20 | 0 | 0 |
| 518 | rz zombie | 2:14.30 | 0 | 0 |
| 519 | fettman53 | 2:14.44 | 0 | 0 |
| 520 | KeetsuMatte | 2:14.75 | 0 | 0 |
| 521 | JaimmyShine | 2:14.82 | 0 | 0 |
| 522 | SneakySnek | 2:14.98 | 0 | 0 |
| 523 | Herringstrand | 2:15.03 | 0 | 0 |
| 524 | PreparationH | 2:15.11 | 0 | 0 |
| 525 | Kitsune's_GALAXY | 2:15.74 | 0 | 0 |
| 526 | Arphey01 | 2:16.32 | 0 | 0 |
| 527 | BrandonK-TN | 2:16.39 | 0 | 0 |
| 528 | PantsuWin | 2:16.50 | 0 | 0 |
| 529 | vorador2 | 2:16.52 | 0 | 0 |
| 529 | dan96kid | 2:16.52 | 0 | 0 |
| 531 | moth | 2:16.64 | 0 | 0 |
| 532 | Lib | 2:16.84 | 0 | 0 |
| 533 | sylvan | 2:17.60 | 0 | 0 |
| 534 | Shadiest | 2:17.61 | 0 | 0 |
| 535 | Jacket | 2:17.70 | 0 | 0 |
| 536 | Adeptus Aconite | 2:18.46 | 0 | 0 |
| 537 | Coded_Ragon | 2:18.59 | 0 | 0 |
| 538 | Buff Nuts | 2:18.73 | 0 | 0 |
| 539 | elrontur | 2:18.87 | 0 | 0 |
| 540 | SKRUZO | 2:19.00 | 0 | 0 |
| 541 | R1ow1ls | 2:19.42 | 0 | 0 |
| 542 | Edragon13 | 2:19.95 | 0 | 0 |
| 543 | robomike27 | 2:20.00 | 0 | 0 |
| 544 | Half | 2:20.33 | 0 | 0 |
| 545 | NyctoGT | 2:20.35 | 0 | 0 |
| 546 | < M A T > | 2:20.44 | 0 | 0 |
| 546 | Joakim230199 | 2:20.44 | 0 | 0 |
| 548 | julio_alexx | 2:20.58 | 0 | 0 |
| 549 | Me an intellectual | 2:20.61 | 0 | 0 |
| 550 | [deleted] | 2:20.63 | 0 | 0 |
| 551 | Stol | 2:20.67 | 0 | 0 |
| 552 | Azzmurr | 2:20.86 | 0 | 0 |
| 553 | Kosyne | 2:20.94 | 0 | 0 |
| 554 | Tenth | 2:21.33 | 0 | 0 |
| 555 | DomNation | 2:21.43 | 0 | 0 |
| 556 | Mama Bugg | 2:22.57 | 0 | 0 |
| 557 | Ian | 2:23.14 | 0 | 0 |
| 558 | itzAndre | 2:23.35 | 0 | 0 |
| 559 | ARandomEel | 2:23.53 | 0 | 0 |
| 560 | bmrc97 | 2:24.40 | 0 | 0 |
| 561 | BlueMage10 | 2:24.42 | 0 | 0 |
| 562 | Asinay | 2:24.44 | 0 | 0 |
| 563 | Hiddelgreyk | 2:24.83 | 0 | 0 |
| 564 | XDrakkir | 2:25.04 | 0 | 0 |
| 565 | Graviterium | 2:25.24 | 0 | 0 |
| 566 | itami | 2:25.80 | 0 | 0 |
| 567 | meadg | 2:26.23 | 0 | 0 |
| 567 | LoopMix | 2:26.23 | 0 | 0 |
| 569 | Seshiruseth | 2:26.70 | 0 | 0 |
| 570 | Wipeout! | 2:26.90 | 0 | 0 |
| 571 | RockyCircle25 | 2:27.01 | 0 | 0 |
| 572 | WSBat | 2:27.29 | 0 | 0 |
| 573 | Well Shit | 2:27.47 | 0 | 0 |
| 574 | Doxology | 2:28.10 | 0 | 0 |
| 575 | Tony Twohands | 2:28.50 | 0 | 0 |
| 576 | ImD | 2:28.56 | 0 | 0 |
| 577 | CygnusAutomata | 2:28.58 | 0 | 0 |
| 578 | Ministro | 2:29.19 | 0 | 0 |
| 579 | Gabagool | 2:29.40 | 0 | 0 |
| 580 | Mithrarim | 2:29.43 | 0 | 0 |
| 581 | Foul Energy | 2:29.68 | 0 | 0 |
| 582 | WorkingChickenMH | 2:29.71 | 0 | 0 |
| 583 | Matork | 2:29.83 | 0 | 0 |
| 584 | Bobertthethird | 2:29.93 | 0 | 0 |
| 585 | Madam SalBranella | 2:30.09 | 0 | 0 |
| 586 | kojackid | 2:30.20 | 0 | 0 |
| 587 | NetSlayer | 2:30.27 | 0 | 0 |
| 588 | Anerix (Paradox) Cormin Quanadol | 2:30.35 | 0 | 0 |
| 589 | tao | 2:30.37 | 0 | 0 |
| 590 | cas8002 | 2:30.96 | 0 | 0 |
| 591 | 76561198057281750 | 2:31.05 | 0 | 0 |
| 592 | ajagajaga | 2:31.21 | 0 | 0 |
| 593 | Zebra | 2:31.97 | 0 | 0 |
| 594 | Aeroslut | 2:32.71 | 0 | 0 |
| 595 | fresquito | 2:32.98 | 0 | 0 |
| 596 | MFG38 | 2:33.08 | 0 | 0 |
| 597 | JLDAGH | 2:33.13 | 0 | 0 |
| 598 | Getty Image Egg Supreme | 2:33.18 | 0 | 0 |
| 599 | Seithri | 2:33.32 | 0 | 0 |
| 600 | AlveKatt | 2:33.33 | 0 | 0 |
| 601 | Awesomedan | 2:33.54 | 0 | 0 |
| 602 | xanthousphoenix | 2:34.02 | 0 | 0 |
| 603 | BennLivid | 2:34.19 | 0 | 0 |
| 604 | amdiranifani | 2:34.49 | 0 | 0 |
| 605 | Julian :-) | 2:34.54 | 0 | 0 |
| 606 | shrümii | 2:34.58 | 0 | 0 |
| 607 | GTNeon | 2:34.83 | 0 | 0 |
| 608 | Moon | 2:34.84 | 0 | 0 |
| 609 | Yoshi | 2:34.89 | 0 | 0 |
| 610 | TS015 | 2:35.45 | 0 | 0 |
| 611 | BaRa.95. | 2:35.59 | 0 | 0 |
| 612 | Cerberus14 | 2:36.17 | 0 | 0 |
| 613 | Alex97r | 2:36.32 | 0 | 0 |
| 614 | Razgriez | 2:36.40 | 0 | 0 |
| 614 | Windrunner | 2:36.40 | 0 | 0 |
| 616 | Frit_/x/ | 2:36.95 | 0 | 0 |
| 617 | dame.najdov | 2:38.07 | 0 | 0 |
| 618 | beamerkilling | 2:38.34 | 0 | 0 |
| 619 | Killsolot | 2:38.66 | 0 | 0 |
| 620 | potion | 2:39.27 | 0 | 0 |
| 621 | Ay Scruh Jum Lord | 2:39.75 | 0 | 0 |
| 622 | Jakl635 | 2:40.37 | 0 | 0 |
| 623 | Tom Bergeron | 2:40.58 | 0 | 0 |
| 624 | Indy1984 | 2:40.61 | 0 | 0 |
| 625 | Damo | 2:40.63 | 0 | 0 |
| 626 | Creepersrock24Gaming | 2:41.15 | 0 | 0 |
| 627 | Urushihara | 2:41.33 | 0 | 0 |
| 628 | Tecknoth | 2:41.79 | 0 | 0 |
| 629 | RunTheStairs | 2:41.90 | 0 | 0 |
| 630 | samson13 | 2:41.99 | 0 | 0 |
| 631 | RaptorClaw | 2:42.05 | 0 | 0 |
| 632 | MiojoEXE | 2:42.09 | 0 | 0 |
| 633 | Chubbs Peterson | 2:43.60 | 0 | 0 |
| 634 | throbbing_fish | 2:43.81 | 0 | 0 |
| 635 | Joshy Grind | 2:43.82 | 0 | 0 |
| 636 | Lilith<3 | 2:44.36 | 0 | 0 |
| 637 | Lee | 2:44.67 | 0 | 0 |
| 638 | DennisTheLogin | 2:45.30 | 0 | 0 |
| 639 | Abyssal Queen | 2:45.41 | 0 | 0 |
| 640 | Khailz | 2:45.48 | 0 | 0 |
| 641 | Awarz luy | 2:46.05 | 0 | 0 |
| 642 | ΣlectrσWingPixy | 2:46.29 | 0 | 0 |
| 643 | Deathbringer | 2:46.32 | 0 | 0 |
| 644 | kkgobkk | 2:46.86 | 0 | 0 |
| 645 | 4P | 2:46.89 | 0 | 0 |
| 646 | Lena_thePilot | 2:47.21 | 0 | 0 |
| 647 | Bodom910 | 2:47.29 | 0 | 0 |
| 648 | Incognito™ | 2:47.41 | 0 | 0 |
| 649 | IsraelGPT | 2:47.46 | 0 | 0 |
| 650 | EnroyM. | 2:47.58 | 0 | 0 |
| 651 | Guterson | 2:47.99 | 0 | 0 |
| 652 | Dropkick | 2:48.18 | 0 | 0 |
| 653 | Enso | 2:48.77 | 0 | 0 |
| 654 | Mewasp | 2:49.55 | 0 | 0 |
| 655 | h3artl3ss362 | 2:49.97 | 0 | 0 |
| 656 | Codemuster | 2:50.16 | 0 | 0 |
| 657 | Sibsen | 2:50.57 | 0 | 0 |
| 658 | MrAxwolf | 2:51.34 | 0 | 0 |
| 659 | The Flickering Remnant Effigy | 2:51.64 | 0 | 0 |
| 660 | William "Black Fox" Hunter | 2:52.10 | 0 | 0 |
| 661 | BillyTheElf | 2:53.28 | 0 | 0 |
| 662 | Waymint | 2:53.94 | 0 | 0 |
| 663 | Mac | 2:54.32 | 0 | 0 |
| 664 | Adrián | 2:54.53 | 0 | 0 |
| 665 | Uranos | 2:54.77 | 0 | 0 |
| 666 | RunawayJesus | 2:55.19 | 0 | 0 |
| 667 | ℛ𝓊𝓃𝑒 | 2:56.21 | 0 | 0 |
| 668 | Etria | 2:57.89 | 0 | 0 |
| 669 | [deleted] | 2:58.99 | 0 | 0 |
| 670 | Zeimeen | 2:59.77 | 0 | 0 |
| 671 | elphirage | 3:00.69 | 0 | 0 |
| 672 | berenji012 | 3:01.14 | 0 | 0 |
| 673 | cAsE | 3:01.31 | 0 | 0 |
| 674 | ThumpieBunnyEve | 3:01.82 | 0 | 0 |
| 674 | Zodijackyl Light | 3:01.82 | 0 | 0 |
| 676 | Salsgore | 3:02.47 | 0 | 0 |
| 677 | fightman | 3:02.66 | 0 | 0 |
| 678 | buerto | 3:05.25 | 0 | 0 |
| 679 | Ape Tea | 3:06.63 | 0 | 0 |
| 680 | Just James | 3:06.72 | 0 | 0 |
| 681 | itsNinety_ | 3:07.93 | 0 | 0 |
| 682 | elder matthew | 3:10.38 | 0 | 0 |
| 683 | Kaelywn | 3:10.75 | 0 | 0 |
| 684 | Fromage | 3:11.33 | 0 | 0 |
| 685 | RobloxMaster69 | 3:12.64 | 0 | 0 |
| 686 | Silver | 3:13.63 | 0 | 0 |
| 687 | Biscuit ビスケット | 3:13.71 | 0 | 0 |
| 688 | kmanpoop | 3:13.96 | 0 | 0 |
| 689 | ShadowM | 3:16.07 | 0 | 0 |
| 690 | Corruptor | 3:16.18 | 0 | 0 |
| 691 | Velimor | 3:16.91 | 0 | 0 |
| 692 | VivaVii | 3:18.15 | 0 | 0 |
| 693 | CMDRVITELL | 3:20.46 | 0 | 0 |
| 694 | Kenbomb | 3:20.87 | 0 | 0 |
| 695 | Bet0 | 3:21.28 | 0 | 0 |
| 696 | don.mario | 3:22.15 | 0 | 0 |
| 697 | Dr.Elusive | 3:22.62 | 0 | 0 |
| 698 | Simer_Soul | 3:22.72 | 0 | 0 |
| 699 | Hudbus | 3:24.90 | 0 | 0 |
| 700 | javi | 3:26.81 | 0 | 0 |
| 701 | Patches | 3:28.59 | 0 | 0 |
| 702 | АДСКИЙ ДРОЧИЛА | 3:30.89 | 0 | 0 |
| 703 | frankzirk | 3:31.42 | 0 | 0 |
| 704 | Varkogane | 3:33.45 | 0 | 0 |
| 705 | BK Trombley | 3:34.07 | 0 | 0 |
| 706 | ratgirl | 3:38.39 | 0 | 0 |
| 707 | Knil92 | 3:43.92 | 0 | 0 |
| 708 | Kamen Shrimper | 3:45.15 | 0 | 0 |
| 709 | IvanFX | 3:45.53 | 0 | 0 |
| 710 | Kunya The Scoot | 3:46.24 | 0 | 0 |
| 711 | Me0wzipan | 3:47.86 | 0 | 0 |
| 712 | in-term-ezzo | 3:51.28 | 0 | 0 |
| 713 | EMPTY | 3:51.42 | 0 | 0 |
| 714 | LordKawaii | 3:52.15 | 0 | 0 |
| 715 | Onur | 4:00.77 | 0 | 0 |
| 716 | ShadeSlayer24 | 4:05.09 | 0 | 0 |
| 717 | IIPN3PAK47RUS | 4:06.03 | 0 | 0 |
| 718 | Shiva Winter | 4:07.66 | 0 | 0 |
| 719 | Marinarathon | 4:11.16 | 0 | 0 |
| 720 | 54mm7 | 4:13.64 | 0 | 0 |
| 721 | Фуражир | 4:14.52 | 0 | 0 |
| 722 | HollyPotato | 4:19.26 | 0 | 0 |
| 723 | Axle Dawn Dusk | 4:21.10 | 0 | 0 |
| 724 | Lengray | 4:23.83 | 0 | 0 |
| 725 | Digital Driver | 4:24.74 | 0 | 0 |
| 726 | Stripe Gurger | 4:28.31 | 0 | 0 |
| 727 | yuri gagarin's creamy interior | 4:28.54 | 0 | 0 |
| 728 | MackyAligatorul | 4:28.75 | 0 | 0 |
| 729 | StolenSouls | 4:29.92 | 0 | 0 |
| 730 | drew094 | 4:35.98 | 0 | 0 |
| 731 | TheGoochSpot | 4:41.75 | 0 | 0 |
| 732 | Ben | 4:45.86 | 0 | 0 |
| 733 | JamesArk | 4:46.50 | 0 | 0 |
| 734 | PixelPython | 4:46.70 | 0 | 0 |
| 735 | Speedy Sn🐍k | 4:47.18 | 0 | 0 |
| 736 | supa scoopa | 4:50.97 | 0 | 0 |
| 737 | Phaserlight | 5:09.61 | 0 | 0 |
| 738 | GreenHydreigon | 5:13.55 | 0 | 0 |
| 739 | Zoombie_™ | 5:35.92 | 0 | 0 |
| 740 | hellpigz | 5:50.82 | 0 | 0 |
| 741 | CyberZott | 6:28.54 | 0 | 0 |
| 742 | Bubblegum Cuddly Dragoness | 7:03.40 | 0 | 0 |
| 743 | Zero_Antlax | 7:26.08 | 0 | 0 |
| 744 | BigChungus208 | 7:30.03 | 0 | 0 |
| 745 | CS | 7:31.81 | 0 | 0 |
HoldGrip